This is the latest recevied weather packets stored in our database for station/object R1ZAAG-14. If no packets are shown the sender has not sent any weather packets the latest 10 day(s).
| Time | Temp. | Humidity | Pressure | Rain* | Wind** | Luminosity | Snow |
|---|---|---|---|---|---|---|---|
| 1777999268 | 3.33° C | 72% | 998.5 hPa | - | - | - | - |
| 1777998396 | 3.33° C | 70% | 998.5 hPa | - | - | - | - |
| 1777998387 | 3.33° C | 70% | 998.5 hPa | - | - | - | - |
| 1777997495 | 3.89° C | 65% | 998.3 hPa | - | - | - | - |
| 1777997486 | 3.89° C | 65% | 998.3 hPa | - | - | - | - |
| 1777996597 | 3.89° C | 67% | 998.1 hPa | - | - | - | - |
| 1777996585 | 3.89° C | 67% | 998.1 hPa | - | - | - | - |
| 1777995690 | 4.44° C | 65% | 998 hPa | - | - | - | - |
| 1777995684 | 4.44° C | 65% | 998 hPa | - | - | - | - |
| 1777994788 | 4.44° C | 64% | 998 hPa | - | - | - | - |
| 1777994783 | 4.44° C | 64% | 998 hPa | - | - | - | - |
| 1777993888 | 5° C | 63% | 997.9 hPa | - | - | - | - |
| 1777993882 | 5° C | 63% | 997.9 hPa | - | - | - | - |
| 1777992986 | 5° C | 64% | 998 hPa | - | - | - | - |
| 1777992982 | 5° C | 64% | 998 hPa | - | - | - | - |
| 1777992087 | 5.56° C | 62% | 997.7 hPa | - | - | - | - |
| 1777992081 | 5.56° C | 62% | 997.7 hPa | - | - | - | - |
| 1777991186 | 5.56° C | 61% | 997.4 hPa | - | - | - | - |
| 1777991181 | 5.56° C | 61% | 997.4 hPa | - | - | - | - |
| 1777989384 | 6.11° C | 60% | 997 hPa | - | - | - | - |
| 1777989379 | 6.11° C | 60% | 997 hPa | - | - | - | - |
| 1777988484 | 7.78° C | 56% | 996.9 hPa | - | - | - | - |
| 1777988478 | 7.78° C | 56% | 996.9 hPa | - | - | - | - |
| 1777987582 | 9.44° C | 52% | 996.7 hPa | - | - | - | - |
| 1777987577 | 9.44° C | 52% | 996.7 hPa | - | - | - | - |
* Rain since midnight (hover to see other rain measurements)
** Current wind speed in m/s (hover to see current wind gust speed)